Time;durP1;ratioP1;P1;durP2;ratioP2;P2;SDS_P1;SDS_P2;PMS_P1;PMS_P2;Temp;Humidity;BMP_temperature;BMP_pressure;BME280_temperature;BME280_humidity;BME280_pressure;Samples;Min_cycle;Max_cycle;Signal;HPM_P1;HPM_P2
2019/07/27 00:00:07;;;;;;;8.4;6.1;;;;;;;23.5;50.36719;94241.85;;;;
2019/07/27 00:01:08;;;;;;;8.4;6.1;;;;;;;23.5;50.36719;94241.85;;;;
2019/07/27 00:02:10;;;;;;;8.4;6.1;;;;;;;23.5;50.36719;94241.85;;;;
2019/07/27 00:03:11;;;;;;;8.4;6.1;;;;;;;23.5;50.36719;94241.85;;;;
2019/07/27 00:04:12;;;;;;;8.4;6.1;;;;;;;23.5;50.36719;94241.85;;;;
2019/07/27 00:05:13;;;;;;;9.4;6.849999;;;;;;;23.34;50.89258;94237.58;;;;
2019/07/27 00:06:14;;;;;;;9.4;6.849999;;;;;;;23.34;50.89258;94237.58;;;;
2019/07/27 00:07:15;;;;;;;9.4;6.849999;;;;;;;23.34;50.89258;94237.58;;;;
2019/07/27 00:08:16;;;;;;;9.4;6.849999;;;;;;;23.34;50.89258;94237.58;;;;
2019/07/27 00:09:17;;;;;;;9.4;6.849999;;;;;;;23.34;50.89258;94237.58;;;;
2019/07/27 00:10:18;;;;;;;9.4;6.849999;;;;;;;23.34;50.89258;94237.58;;;;
2019/07/27 00:11:20;;;;;;;9.4;6.849999;;;;;;;23.34;50.89258;94237.58;;;;
2019/07/27 00:12:21;;;;;;;9.4;6.849999;;;;;;;23.34;50.89258;94237.58;;;;
2019/07/27 00:13:22;;;;;;;9.4;6.849999;;;;;;;23.34;50.89258;94237.58;;;;
2019/07/27 00:14:23;;;;;;;9.4;6.849999;;;;;;;23.34;50.89258;94237.58;;;;
2019/07/27 00:15:24;;;;;;;9.4;6.849999;;;;;;;23.34;50.89258;94237.58;;;;
2019/07/27 00:16:26;;;;;;;9.4;6.849999;;;;;;;23.34;50.89258;94237.58;;;;
2019/07/27 00:17:27;;;;;;;9.4;6.849999;;;;;;;23.34;50.89258;94237.58;;;;
2019/07/27 00:18:28;;;;;;;9.4;6.849999;;;;;;;23.34;50.89258;94237.58;;;;
2019/07/27 00:19:29;;;;;;;9.4;6.849999;;;;;;;23.34;50.89258;94237.58;;;;
2019/07/27 00:20:30;;;;;;;9.4;6.849999;;;;;;;23.34;50.89258;94237.58;;;;
2019/07/27 00:21:32;;;;;;;9.4;6.849999;;;;;;;23.34;50.89258;94237.58;;;;
2019/07/27 00:22:33;;;;;;;9.4;6.849999;;;;;;;23.34;50.89258;94237.58;;;;
2019/07/27 00:23:34;;;;;;;9.4;6.849999;;;;;;;23.34;50.89258;94237.58;;;;
2019/07/27 00:24:35;;;;;;;9.4;6.849999;;;;;;;23.34;50.89258;94237.58;;;;
2019/07/27 00:25:36;;;;;;;9.4;6.849999;;;;;;;23.34;50.89258;94237.58;;;;
2019/07/27 00:26:37;;;;;;;7.25;6.15;;;;;;;23.15;51.68066;94249.67;;;;
2019/07/27 00:27:38;;;;;;;7.25;6.15;;;;;;;23.15;51.68066;94249.67;;;;
2019/07/27 00:28:39;;;;;;;7.25;6.15;;;;;;;23.15;51.68066;94249.67;;;;
2019/07/27 00:29:40;;;;;;;7.25;6.15;;;;;;;23.15;51.68066;94249.67;;;;
2019/07/27 00:30:41;;;;;;;7.25;6.15;;;;;;;23.15;51.68066;94249.67;;;;
2019/07/27 00:31:45;;;;;;;7.25;6.15;;;;;;;23.15;51.68066;94249.67;;;;
2019/07/27 00:32:46;;;;;;;7.25;6.15;;;;;;;23.15;51.68066;94249.67;;;;
2019/07/27 00:33:47;;;;;;;7.25;6.15;;;;;;;23.15;51.68066;94249.67;;;;
2019/07/27 00:34:48;;;;;;;7.25;6.15;;;;;;;23.15;51.68066;94249.67;;;;
2019/07/27 00:35:49;;;;;;;7.25;6.15;;;;;;;23.15;51.68066;94249.67;;;;
2019/07/27 00:36:50;;;;;;;10;6.849999;;;;;;;22.92;52.49707;94239.17;;;;
2019/07/27 00:37:51;;;;;;;10;6.849999;;;;;;;22.92;52.49707;94239.17;;;;
2019/07/27 00:38:52;;;;;;;10;6.849999;;;;;;;22.92;52.49707;94239.17;;;;
2019/07/27 00:39:53;;;;;;;10;6.849999;;;;;;;22.92;52.49707;94239.17;;;;
2019/07/27 00:40:55;;;;;;;10;6.849999;;;;;;;22.92;52.49707;94239.17;;;;
2019/07/27 00:41:56;;;;;;;10;6.849999;;;;;;;22.92;52.49707;94239.17;;;;
2019/07/27 00:42:57;;;;;;;10;6.849999;;;;;;;22.92;52.49707;94239.17;;;;
2019/07/27 00:43:58;;;;;;;10;6.849999;;;;;;;22.92;52.49707;94239.17;;;;
2019/07/27 00:44:59;;;;;;;10;6.849999;;;;;;;22.92;52.49707;94239.17;;;;
2019/07/27 00:46:00;;;;;;;10;6.849999;;;;;;;22.92;52.49707;94239.17;;;;
2019/07/27 00:47:01;;;;;;;10;6.849999;;;;;;;22.92;52.49707;94239.17;;;;
2019/07/27 00:48:03;;;;;;;9.15;6.6;;;;;;;22.82;53.29297;94230.94;;;;
2019/07/27 00:49:04;;;;;;;9.15;6.6;;;;;;;22.82;53.29297;94230.94;;;;
2019/07/27 00:50:05;;;;;;;9.15;6.6;;;;;;;22.82;53.29297;94230.94;;;;
2019/07/27 00:51:06;;;;;;;9.15;6.6;;;;;;;22.82;53.29297;94230.94;;;;
2019/07/27 00:52:07;;;;;;;9.15;6.6;;;;;;;22.82;53.29297;94230.94;;;;
2019/07/27 00:53:09;;;;;;;9.15;6.6;;;;;;;22.82;53.29297;94230.94;;;;
2019/07/27 00:54:10;;;;;;;9.15;6.6;;;;;;;22.82;53.29297;94230.94;;;;
2019/07/27 00:55:11;;;;;;;9.15;6.6;;;;;;;22.82;53.29297;94230.94;;;;
2019/07/27 00:56:16;;;;;;;9.15;6.6;;;;;;;22.82;53.29297;94230.94;;;;
2019/07/27 00:57:17;;;;;;;9.15;6.6;;;;;;;22.82;53.29297;94230.94;;;;
2019/07/27 00:58:18;;;;;;;8.699999;6.55;;;;;;;22.77;53.80762;94225.24;;;;
2019/07/27 00:59:19;;;;;;;8.699999;6.55;;;;;;;22.77;53.80762;94225.24;;;;
2019/07/27 01:00:20;;;;;;;8.699999;6.55;;;;;;;22.77;53.80762;94225.24;;;;
2019/07/27 01:01:30;;;;;;;8.699999;6.55;;;;;;;22.77;53.80762;94225.24;;;;
2019/07/27 01:02:31;;;;;;;8.699999;6.55;;;;;;;22.77;53.80762;94225.24;;;;
2019/07/27 01:03:32;;;;;;;8.699999;6.55;;;;;;;22.77;53.80762;94225.24;;;;
2019/07/27 01:04:33;;;;;;;8.699999;6.55;;;;;;;22.77;53.80762;94225.24;;;;
2019/07/27 01:05:34;;;;;;;8.699999;6.55;;;;;;;22.77;53.80762;94225.24;;;;
2019/07/27 01:06:36;;;;;;;8.699999;6.55;;;;;;;22.77;53.80762;94225.24;;;;
2019/07/27 01:07:37;;;;;;;8.699999;6.55;;;;;;;22.77;53.80762;94225.24;;;;
2019/07/27 01:08:38;;;;;;;7.95;6.649999;;;;;;;22.79;53.75586;94210.39;;;;
2019/07/27 01:09:39;;;;;;;7.95;6.649999;;;;;;;22.79;53.75586;94210.39;;;;
2019/07/27 01:10:40;;;;;;;7.95;6.649999;;;;;;;22.79;53.75586;94210.39;;;;
2019/07/27 01:11:42;;;;;;;7.95;6.649999;;;;;;;22.79;53.75586;94210.39;;;;
2019/07/27 01:12:43;;;;;;;7.95;6.649999;;;;;;;22.79;53.75586;94210.39;;;;
2019/07/27 01:13:44;;;;;;;7.95;6.649999;;;;;;;22.79;53.75586;94210.39;;;;
2019/07/27 01:14:45;;;;;;;7.95;6.649999;;;;;;;22.79;53.75586;94210.39;;;;
2019/07/27 01:15:46;;;;;;;7.95;6.649999;;;;;;;22.79;53.75586;94210.39;;;;
2019/07/27 01:16:47;;;;;;;7.95;6.649999;;;;;;;22.79;53.75586;94210.39;;;;
2019/07/27 01:17:48;;;;;;;7.95;6.649999;;;;;;;22.79;53.75586;94210.39;;;;
2019/07/27 01:18:50;;;;;;;7.95;6.649999;;;;;;;22.79;53.75586;94210.39;;;;
2019/07/27 01:19:51;;;;;;;7.95;6.349999;;;;;;;22.75;53.91602;94206.88;;;;
2019/07/27 01:20:53;;;;;;;7.95;6.349999;;;;;;;22.75;53.91602;94206.88;;;;
2019/07/27 01:21:54;;;;;;;7.95;6.349999;;;;;;;22.75;53.91602;94206.88;;;;
2019/07/27 01:22:55;;;;;;;7.95;6.349999;;;;;;;22.75;53.91602;94206.88;;;;
2019/07/27 01:23:56;;;;;;;7.95;6.349999;;;;;;;22.75;53.91602;94206.88;;;;
2019/07/27 01:24:58;;;;;;;7.95;6.349999;;;;;;;22.75;53.91602;94206.88;;;;
2019/07/27 01:25:59;;;;;;;7.95;6.349999;;;;;;;22.75;53.91602;94206.88;;;;
2019/07/27 01:27:00;;;;;;;7.95;6.349999;;;;;;;22.75;53.91602;94206.88;;;;
2019/07/27 01:28:01;;;;;;;7.95;6.349999;;;;;;;22.75;53.91602;94206.88;;;;
2019/07/27 01:29:03;;;;;;;7.95;6.349999;;;;;;;22.75;53.91602;94206.88;;;;
2019/07/27 01:30:04;;;;;;;7.849999;6.7;;;;;;;22.73;53.87988;94207.64;;;;
2019/07/27 01:31:10;;;;;;;7.849999;6.7;;;;;;;22.73;53.87988;94207.64;;;;
2019/07/27 01:33:15;;;;;;;7.849999;6.7;;;;;;;22.73;53.87988;94207.64;;;;
2019/07/27 01:34:36;;;;;;;7.849999;6.7;;;;;;;22.73;53.87988;94207.64;;;;
2019/07/27 01:35:47;;;;;;;7.849999;6.7;;;;;;;22.73;53.87988;94207.64;;;;
2019/07/27 01:36:48;;;;;;;7.849999;6.7;;;;;;;22.73;53.87988;94207.64;;;;
2019/07/27 01:37:50;;;;;;;7.849999;6.7;;;;;;;22.73;53.87988;94207.64;;;;
2019/07/27 01:38:51;;;;;;;7.849999;6.7;;;;;;;22.73;53.87988;94207.64;;;;
2019/07/27 01:39:52;;;;;;;7.849999;6.7;;;;;;;22.73;53.87988;94207.64;;;;
2019/07/27 01:40:53;;;;;;;8.6;6.900001;;;;;;;22.55;54.30078;94204.39;;;;
2019/07/27 01:41:54;;;;;;;8.6;6.900001;;;;;;;22.55;54.30078;94204.39;;;;
2019/07/27 01:42:55;;;;;;;8.6;6.900001;;;;;;;22.55;54.30078;94204.39;;;;
2019/07/27 01:43:56;;;;;;;8.6;6.900001;;;;;;;22.55;54.30078;94204.39;;;;
2019/07/27 01:44:57;;;;;;;8.6;6.900001;;;;;;;22.55;54.30078;94204.39;;;;
2019/07/27 01:45:58;;;;;;;8.6;6.900001;;;;;;;22.55;54.30078;94204.39;;;;
2019/07/27 01:47:00;;;;;;;8.6;6.900001;;;;;;;22.55;54.30078;94204.39;;;;
2019/07/27 01:48:01;;;;;;;8.6;6.900001;;;;;;;22.55;54.30078;94204.39;;;;
2019/07/27 01:49:02;;;;;;;8.6;6.900001;;;;;;;22.55;54.30078;94204.39;;;;
2019/07/27 01:50:03;;;;;;;8.6;6.900001;;;;;;;22.55;54.30078;94204.39;;;;
2019/07/27 01:51:06;;;;;;;7.850001;6.699999;;;;;;;22.42;54.69336;94207.37;;;;
2019/07/27 01:52:07;;;;;;;7.850001;6.699999;;;;;;;22.42;54.69336;94207.37;;;;
2019/07/27 01:53:08;;;;;;;7.850001;6.699999;;;;;;;22.42;54.69336;94207.37;;;;
2019/07/27 01:54:09;;;;;;;7.850001;6.699999;;;;;;;22.42;54.69336;94207.37;;;;
2019/07/27 01:55:10;;;;;;;7.850001;6.699999;;;;;;;22.42;54.69336;94207.37;;;;
2019/07/27 01:56:12;;;;;;;7.850001;6.699999;;;;;;;22.42;54.69336;94207.37;;;;
2019/07/27 01:57:13;;;;;;;7.850001;6.699999;;;;;;;22.42;54.69336;94207.37;;;;
2019/07/27 01:58:14;;;;;;;7.850001;6.699999;;;;;;;22.42;54.69336;94207.37;;;;
2019/07/27 01:59:15;;;;;;;7.850001;6.699999;;;;;;;22.42;54.69336;94207.37;;;;
2019/07/27 02:00:17;;;;;;;7.850001;6.699999;;;;;;;22.42;54.69336;94207.37;;;;
2019/07/27 02:01:36;;;;;;;8.149999;7;;;;;;;22.23;55.22363;94212.76;;;;
2019/07/27 02:02:37;;;;;;;8.149999;7;;;;;;;22.23;55.22363;94212.76;;;;
2019/07/27 02:03:38;;;;;;;8.149999;7;;;;;;;22.23;55.22363;94212.76;;;;
2019/07/27 02:04:40;;;;;;;8.149999;7;;;;;;;22.23;55.22363;94212.76;;;;
2019/07/27 02:05:41;;;;;;;8.149999;7;;;;;;;22.23;55.22363;94212.76;;;;
2019/07/27 02:06:42;;;;;;;8.149999;7;;;;;;;22.23;55.22363;94212.76;;;;
2019/07/27 02:07:43;;;;;;;8.149999;7;;;;;;;22.23;55.22363;94212.76;;;;
2019/07/27 02:08:45;;;;;;;8.149999;7;;;;;;;22.23;55.22363;94212.76;;;;
2019/07/27 02:09:46;;;;;;;8.149999;7;;;;;;;22.23;55.22363;94212.76;;;;
2019/07/27 02:10:48;;;;;;;8.149999;7;;;;;;;22.23;55.22363;94212.76;;;;
2019/07/27 02:11:50;;;;;;;8.149999;7;;;;;;;22.23;55.22363;94212.76;;;;
2019/07/27 02:12:51;;;;;;;7.9;7.1;;;;;;;22.15;55.46777;94203.61;;;;
2019/07/27 02:13:52;;;;;;;7.9;7.1;;;;;;;22.15;55.46777;94203.61;;;;
2019/07/27 02:14:53;;;;;;;7.9;7.1;;;;;;;22.15;55.46777;94203.61;;;;
2019/07/27 02:15:55;;;;;;;7.9;7.1;;;;;;;22.15;55.46777;94203.61;;;;
2019/07/27 02:16:56;;;;;;;7.9;7.1;;;;;;;22.15;55.46777;94203.61;;;;
2019/07/27 02:17:57;;;;;;;7.9;7.1;;;;;;;22.15;55.46777;94203.61;;;;
2019/07/27 02:18:58;;;;;;;7.9;7.1;;;;;;;22.15;55.46777;94203.61;;;;
2019/07/27 02:19:59;;;;;;;7.9;7.1;;;;;;;22.15;55.46777;94203.61;;;;
2019/07/27 02:21:01;;;;;;;7.9;7.1;;;;;;;22.15;55.46777;94203.61;;;;
2019/07/27 02:22:03;;;;;;;7.9;7.1;;;;;;;22.15;55.46777;94203.61;;;;
2019/07/27 02:23:04;;;;;;;8.299998;7.3;;;;;;;21.95;55.84082;94202.6;;;;
2019/07/27 02:24:06;;;;;;;8.299998;7.3;;;;;;;21.95;55.84082;94202.6;;;;
2019/07/27 02:25:07;;;;;;;8.299998;7.3;;;;;;;21.95;55.84082;94202.6;;;;
2019/07/27 02:26:08;;;;;;;8.299998;7.3;;;;;;;21.95;55.84082;94202.6;;;;
2019/07/27 02:27:10;;;;;;;8.299998;7.3;;;;;;;21.95;55.84082;94202.6;;;;
2019/07/27 02:28:11;;;;;;;8.299998;7.3;;;;;;;21.95;55.84082;94202.6;;;;
2019/07/27 02:29:12;;;;;;;8.299998;7.3;;;;;;;21.95;55.84082;94202.6;;;;
2019/07/27 02:30:13;;;;;;;8.299998;7.3;;;;;;;21.95;55.84082;94202.6;;;;
2019/07/27 02:31:15;;;;;;;8.299998;7.3;;;;;;;21.95;55.84082;94202.6;;;;
2019/07/27 02:32:16;;;;;;;8.299998;7.3;;;;;;;21.95;55.84082;94202.6;;;;
2019/07/27 02:33:17;;;;;;;7.199999;6.400001;;;;;;;21.76;56.31348;94182.98;;;;
2019/07/27 02:34:18;;;;;;;7.199999;6.400001;;;;;;;21.76;56.31348;94182.98;;;;
2019/07/27 02:35:19;;;;;;;7.199999;6.400001;;;;;;;21.76;56.31348;94182.98;;;;
2019/07/27 02:36:20;;;;;;;7.199999;6.400001;;;;;;;21.76;56.31348;94182.98;;;;
2019/07/27 02:37:22;;;;;;;7.199999;6.400001;;;;;;;21.76;56.31348;94182.98;;;;
2019/07/27 02:38:24;;;;;;;7.199999;6.400001;;;;;;;21.76;56.31348;94182.98;;;;
2019/07/27 02:39:25;;;;;;;7.199999;6.400001;;;;;;;21.76;56.31348;94182.98;;;;
2019/07/27 02:40:26;;;;;;;7.199999;6.400001;;;;;;;21.76;56.31348;94182.98;;;;
2019/07/27 02:41:31;;;;;;;7.199999;6.400001;;;;;;;21.76;56.31348;94182.98;;;;
2019/07/27 02:42:33;;;;;;;7.199999;6.400001;;;;;;;21.76;56.31348;94182.98;;;;
2019/07/27 02:43:34;;;;;;;7.199999;6.400001;;;;;;;21.76;56.31348;94182.98;;;;
2019/07/27 02:44:35;;;;;;;7.25;6.5;;;;;;;21.53;56.60449;94187.55;;;;
2019/07/27 02:45:36;;;;;;;7.25;6.5;;;;;;;21.53;56.60449;94187.55;;;;
2019/07/27 02:46:38;;;;;;;7.25;6.5;;;;;;;21.53;56.60449;94187.55;;;;
2019/07/27 02:47:39;;;;;;;7.25;6.5;;;;;;;21.53;56.60449;94187.55;;;;
2019/07/27 02:48:40;;;;;;;7.25;6.5;;;;;;;21.53;56.60449;94187.55;;;;
2019/07/27 02:49:41;;;;;;;7.25;6.5;;;;;;;21.53;56.60449;94187.55;;;;
2019/07/27 02:50:42;;;;;;;7.25;6.5;;;;;;;21.53;56.60449;94187.55;;;;
2019/07/27 02:51:43;;;;;;;7.25;6.5;;;;;;;21.53;56.60449;94187.55;;;;
2019/07/27 02:52:44;;;;;;;7.25;6.5;;;;;;;21.53;56.60449;94187.55;;;;
2019/07/27 02:53:45;;;;;;;7.25;6.5;;;;;;;21.53;56.60449;94187.55;;;;
2019/07/27 02:54:46;;;;;;;6.699999;6.100001;;;;;;;21.36;57.14551;94177.59;;;;
2019/07/27 02:55:47;;;;;;;6.699999;6.100001;;;;;;;21.36;57.14551;94177.59;;;;
2019/07/27 02:56:49;;;;;;;6.699999;6.100001;;;;;;;21.36;57.14551;94177.59;;;;
2019/07/27 02:57:50;;;;;;;6.699999;6.100001;;;;;;;21.36;57.14551;94177.59;;;;
2019/07/27 02:58:51;;;;;;;6.699999;6.100001;;;;;;;21.36;57.14551;94177.59;;;;
2019/07/27 02:59:52;;;;;;;6.699999;6.100001;;;;;;;21.36;57.14551;94177.59;;;;
2019/07/27 03:00:53;;;;;;;6.699999;6.100001;;;;;;;21.36;57.14551;94177.59;;;;
2019/07/27 03:01:58;;;;;;;6.699999;6.100001;;;;;;;21.36;57.14551;94177.59;;;;
2019/07/27 03:02:59;;;;;;;6.699999;6.100001;;;;;;;21.36;57.14551;94177.59;;;;
2019/07/27 03:04:00;;;;;;;6.699999;6.100001;;;;;;;21.36;57.14551;94177.59;;;;
2019/07/27 03:05:01;;;;;;;6.699999;6.100001;;;;;;;21.36;57.14551;94177.59;;;;
2019/07/27 03:06:03;;;;;;;6.849999;6.149999;;;;;;;21.23;57.30566;94174.75;;;;
2019/07/27 03:07:04;;;;;;;6.849999;6.149999;;;;;;;21.23;57.30566;94174.75;;;;
2019/07/27 03:08:05;;;;;;;6.849999;6.149999;;;;;;;21.23;57.30566;94174.75;;;;
2019/07/27 03:09:07;;;;;;;6.849999;6.149999;;;;;;;21.23;57.30566;94174.75;;;;
2019/07/27 03:10:08;;;;;;;6.849999;6.149999;;;;;;;21.23;57.30566;94174.75;;;;
2019/07/27 03:11:09;;;;;;;6.849999;6.149999;;;;;;;21.23;57.30566;94174.75;;;;
2019/07/27 03:12:10;;;;;;;6.849999;6.149999;;;;;;;21.23;57.30566;94174.75;;;;
2019/07/27 03:13:12;;;;;;;6.849999;6.149999;;;;;;;21.23;57.30566;94174.75;;;;
2019/07/27 03:14:13;;;;;;;6.849999;6.149999;;;;;;;21.23;57.30566;94174.75;;;;
2019/07/27 03:15:14;;;;;;;6.849999;6.149999;;;;;;;21.23;57.30566;94174.75;;;;
2019/07/27 03:16:15;;;;;;;6.349999;5.749999;;;;;;;21.12;57.55469;94165.81;;;;
2019/07/27 03:17:16;;;;;;;6.349999;5.749999;;;;;;;21.12;57.55469;94165.81;;;;
2019/07/27 03:18:17;;;;;;;6.349999;5.749999;;;;;;;21.12;57.55469;94165.81;;;;
2019/07/27 03:19:18;;;;;;;6.349999;5.749999;;;;;;;21.12;57.55469;94165.81;;;;
2019/07/27 03:20:20;;;;;;;6.349999;5.749999;;;;;;;21.12;57.55469;94165.81;;;;
2019/07/27 03:21:21;;;;;;;6.349999;5.749999;;;;;;;21.12;57.55469;94165.81;;;;
2019/07/27 03:22:22;;;;;;;6.349999;5.749999;;;;;;;21.12;57.55469;94165.81;;;;
2019/07/27 03:23:23;;;;;;;6.349999;5.749999;;;;;;;21.12;57.55469;94165.81;;;;
2019/07/27 03:24:24;;;;;;;6.349999;5.749999;;;;;;;21.12;57.55469;94165.81;;;;
2019/07/27 03:25:25;;;;;;;6.349999;5.749999;;;;;;;21.12;57.55469;94165.81;;;;
2019/07/27 03:26:27;;;;;;;6.2;5.45;;;;;;;20.95;57.95215;94168.04;;;;
2019/07/27 03:27:28;;;;;;;6.2;5.45;;;;;;;20.95;57.95215;94168.04;;;;
2019/07/27 03:28:29;;;;;;;6.2;5.45;;;;;;;20.95;57.95215;94168.04;;;;
2019/07/27 03:29:30;;;;;;;6.2;5.45;;;;;;;20.95;57.95215;94168.04;;;;
2019/07/27 03:30:31;;;;;;;6.2;5.45;;;;;;;20.95;57.95215;94168.04;;;;
2019/07/27 03:31:35;;;;;;;6.2;5.45;;;;;;;20.95;57.95215;94168.04;;;;
2019/07/27 03:32:36;;;;;;;6.2;5.45;;;;;;;20.95;57.95215;94168.04;;;;
2019/07/27 03:33:37;;;;;;;6.2;5.45;;;;;;;20.95;57.95215;94168.04;;;;
2019/07/27 03:34:38;;;;;;;6.2;5.45;;;;;;;20.95;57.95215;94168.04;;;;
2019/07/27 03:35:39;;;;;;;6.2;5.45;;;;;;;20.95;57.95215;94168.04;;;;
2019/07/27 03:36:40;;;;;;;6.2;5.45;;;;;;;20.95;57.95215;94168.04;;;;
2019/07/27 03:37:41;;;;;;;6.05;5.149999;;;;;;;21;58.14551;94172;;;;
2019/07/27 03:38:43;;;;;;;6.05;5.149999;;;;;;;21;58.14551;94172;;;;
2019/07/27 03:39:44;;;;;;;6.05;5.149999;;;;;;;21;58.14551;94172;;;;
2019/07/27 03:40:45;;;;;;;6.05;5.149999;;;;;;;21;58.14551;94172;;;;
2019/07/27 03:41:46;;;;;;;6.05;5.149999;;;;;;;21;58.14551;94172;;;;
2019/07/27 03:42:47;;;;;;;6.05;5.149999;;;;;;;21;58.14551;94172;;;;
2019/07/27 03:43:48;;;;;;;6.05;5.149999;;;;;;;21;58.14551;94172;;;;
2019/07/27 03:44:49;;;;;;;6.05;5.149999;;;;;;;21;58.14551;94172;;;;
2019/07/27 03:45:51;;;;;;;6.05;5.149999;;;;;;;21;58.14551;94172;;;;
2019/07/27 03:46:52;;;;;;;6.05;5.149999;;;;;;;21;58.14551;94172;;;;
2019/07/27 03:47:53;;;;;;;5.7;5.1;;;;;;;21.12;58.09473;94169.93;;;;
2019/07/27 03:48:54;;;;;;;5.7;5.1;;;;;;;21.12;58.09473;94169.93;;;;
2019/07/27 03:49:55;;;;;;;5.7;5.1;;;;;;;21.12;58.09473;94169.93;;;;
2019/07/27 03:50:56;;;;;;;5.7;5.1;;;;;;;21.12;58.09473;94169.93;;;;
2019/07/27 03:51:57;;;;;;;5.7;5.1;;;;;;;21.12;58.09473;94169.93;;;;
2019/07/27 03:52:58;;;;;;;5.7;5.1;;;;;;;21.12;58.09473;94169.93;;;;
2019/07/27 03:53:59;;;;;;;5.7;5.1;;;;;;;21.12;58.09473;94169.93;;;;
2019/07/27 03:55:00;;;;;;;5.7;5.1;;;;;;;21.12;58.09473;94169.93;;;;
2019/07/27 03:56:02;;;;;;;5.7;5.1;;;;;;;21.12;58.09473;94169.93;;;;
2019/07/27 03:57:03;;;;;;;5.7;5.1;;;;;;;21.12;58.09473;94169.93;;;;
2019/07/27 03:58:04;;;;;;;5.7;5.1;;;;;;;21.12;58.09473;94169.93;;;;
2019/07/27 03:59:05;;;;;;;5.8;5.25;;;;;;;21.32;58.02246;94171.55;;;;
2019/07/27 04:00:06;;;;;;;5.8;5.25;;;;;;;21.32;58.02246;94171.55;;;;
2019/07/27 04:01:08;;;;;;;5.8;5.25;;;;;;;21.32;58.02246;94171.55;;;;
2019/07/27 04:02:09;;;;;;;5.8;5.25;;;;;;;21.32;58.02246;94171.55;;;;
2019/07/27 04:03:11;;;;;;;5.8;5.25;;;;;;;21.32;58.02246;94171.55;;;;
2019/07/27 04:04:12;;;;;;;5.8;5.25;;;;;;;21.32;58.02246;94171.55;;;;
2019/07/27 04:05:13;;;;;;;5.8;5.25;;;;;;;21.32;58.02246;94171.55;;;;
2019/07/27 04:06:14;;;;;;;5.8;5.25;;;;;;;21.32;58.02246;94171.55;;;;
2019/07/27 04:07:15;;;;;;;5.8;5.25;;;;;;;21.32;58.02246;94171.55;;;;
2019/07/27 04:08:16;;;;;;;5.8;5.25;;;;;;;21.32;58.02246;94171.55;;;;
2019/07/27 04:09:18;;;;;;;5.2;4.7;;;;;;;21.44;57.83984;94179.33;;;;
2019/07/27 04:10:19;;;;;;;5.2;4.7;;;;;;;21.44;57.83984;94179.33;;;;
2019/07/27 04:11:20;;;;;;;5.2;4.7;;;;;;;21.44;57.83984;94179.33;;;;
2019/07/27 04:12:21;;;;;;;5.2;4.7;;;;;;;21.44;57.83984;94179.33;;;;
2019/07/27 04:13:22;;;;;;;5.2;4.7;;;;;;;21.44;57.83984;94179.33;;;;
2019/07/27 04:14:23;;;;;;;5.2;4.7;;;;;;;21.44;57.83984;94179.33;;;;
2019/07/27 04:15:24;;;;;;;5.2;4.7;;;;;;;21.44;57.83984;94179.33;;;;
2019/07/27 04:16:26;;;;;;;5.2;4.7;;;;;;;21.44;57.83984;94179.33;;;;
2019/07/27 04:17:27;;;;;;;5.2;4.7;;;;;;;21.44;57.83984;94179.33;;;;
2019/07/27 04:18:28;;;;;;;5.2;4.7;;;;;;;21.44;57.83984;94179.33;;;;
2019/07/27 04:19:29;;;;;;;5;4.599999;;;;;;;21.62;57.81738;94182.81;;;;
2019/07/27 04:20:30;;;;;;;5;4.599999;;;;;;;21.62;57.81738;94182.81;;;;
2019/07/27 04:21:31;;;;;;;5;4.599999;;;;;;;21.62;57.81738;94182.81;;;;
2019/07/27 04:22:32;;;;;;;5;4.599999;;;;;;;21.62;57.81738;94182.81;;;;
2019/07/27 04:23:33;;;;;;;5;4.599999;;;;;;;21.62;57.81738;94182.81;;;;
2019/07/27 04:24:34;;;;;;;5;4.599999;;;;;;;21.62;57.81738;94182.81;;;;
2019/07/27 04:25:35;;;;;;;5;4.599999;;;;;;;21.62;57.81738;94182.81;;;;
2019/07/27 04:26:37;;;;;;;5;4.599999;;;;;;;21.62;57.81738;94182.81;;;;
2019/07/27 04:27:38;;;;;;;5;4.599999;;;;;;;21.62;57.81738;94182.81;;;;
2019/07/27 04:28:39;;;;;;;5;4.599999;;;;;;;21.62;57.81738;94182.81;;;;
2019/07/27 04:29:40;;;;;;;5;4.599999;;;;;;;21.62;57.81738;94182.81;;;;
2019/07/27 04:30:41;;;;;;;6.149999;5.2;;;;;;;21.78;57.79688;94192.92;;;;
2019/07/27 04:31:42;;;;;;;6.149999;5.2;;;;;;;21.78;57.79688;94192.92;;;;
2019/07/27 04:32:43;;;;;;;6.149999;5.2;;;;;;;21.78;57.79688;94192.92;;;;
2019/07/27 04:33:44;;;;;;;6.149999;5.2;;;;;;;21.78;57.79688;94192.92;;;;
2019/07/27 04:34:45;;;;;;;6.149999;5.2;;;;;;;21.78;57.79688;94192.92;;;;
2019/07/27 04:35:47;;;;;;;6.149999;5.2;;;;;;;21.78;57.79688;94192.92;;;;
2019/07/27 04:36:48;;;;;;;6.149999;5.2;;;;;;;21.78;57.79688;94192.92;;;;
2019/07/27 04:37:49;;;;;;;6.149999;5.2;;;;;;;21.78;57.79688;94192.92;;;;
2019/07/27 04:38:50;;;;;;;6.149999;5.2;;;;;;;21.78;57.79688;94192.92;;;;
2019/07/27 04:39:51;;;;;;;6.149999;5.2;;;;;;;21.78;57.79688;94192.92;;;;
2019/07/27 04:40:52;;;;;;;6.3;5.199999;;;;;;;22.01;57.82324;94207.75;;;;
2019/07/27 04:41:53;;;;;;;6.3;5.199999;;;;;;;22.01;57.82324;94207.75;;;;
2019/07/27 04:42:54;;;;;;;6.3;5.199999;;;;;;;22.01;57.82324;94207.75;;;;
2019/07/27 04:43:55;;;;;;;6.3;5.199999;;;;;;;22.01;57.82324;94207.75;;;;
2019/07/27 04:44:57;;;;;;;6.3;5.199999;;;;;;;22.01;57.82324;94207.75;;;;
2019/07/27 04:45:58;;;;;;;6.3;5.199999;;;;;;;22.01;57.82324;94207.75;;;;
2019/07/27 04:46:59;;;;;;;6.3;5.199999;;;;;;;22.01;57.82324;94207.75;;;;
2019/07/27 04:48:00;;;;;;;6.3;5.199999;;;;;;;22.01;57.82324;94207.75;;;;
2019/07/27 04:49:01;;;;;;;6.3;5.199999;;;;;;;22.01;57.82324;94207.75;;;;
2019/07/27 04:50:02;;;;;;;6.3;5.199999;;;;;;;22.01;57.82324;94207.75;;;;
2019/07/27 04:51:05;;;;;;;6.3;5.199999;;;;;;;22.01;57.82324;94207.75;;;;
2019/07/27 04:52:06;;;;;;;5.75;5.199999;;;;;;;22.15;58.18359;94224.8;;;;
2019/07/27 04:53:07;;;;;;;5.75;5.199999;;;;;;;22.15;58.18359;94224.8;;;;
2019/07/27 04:54:08;;;;;;;5.75;5.199999;;;;;;;22.15;58.18359;94224.8;;;;
2019/07/27 04:55:10;;;;;;;5.75;5.199999;;;;;;;22.15;58.18359;94224.8;;;;
2019/07/27 04:56:11;;;;;;;5.75;5.199999;;;;;;;22.15;58.18359;94224.8;;;;
2019/07/27 04:57:12;;;;;;;5.75;5.199999;;;;;;;22.15;58.18359;94224.8;;;;
2019/07/27 04:58:13;;;;;;;5.75;5.199999;;;;;;;22.15;58.18359;94224.8;;;;
2019/07/27 04:59:14;;;;;;;5.75;5.199999;;;;;;;22.15;58.18359;94224.8;;;;
2019/07/27 05:00:15;;;;;;;5.75;5.199999;;;;;;;22.15;58.18359;94224.8;;;;
2019/07/27 05:01:34;;;;;;;5.75;5.199999;;;;;;;22.15;58.18359;94224.8;;;;
2019/07/27 05:02:35;;;;;;;5.800001;5.3;;;;;;;22.3;58.41309;94239.34;;;;
2019/07/27 05:03:37;;;;;;;5.800001;5.3;;;;;;;22.3;58.41309;94239.34;;;;
2019/07/27 05:04:38;;;;;;;5.800001;5.3;;;;;;;22.3;58.41309;94239.34;;;;
2019/07/27 05:05:39;;;;;;;5.800001;5.3;;;;;;;22.3;58.41309;94239.34;;;;
2019/07/27 05:06:40;;;;;;;5.800001;5.3;;;;;;;22.3;58.41309;94239.34;;;;
2019/07/27 05:07:41;;;;;;;5.800001;5.3;;;;;;;22.3;58.41309;94239.34;;;;
2019/07/27 05:08:42;;;;;;;5.800001;5.3;;;;;;;22.3;58.41309;94239.34;;;;
2019/07/27 05:09:43;;;;;;;5.800001;5.3;;;;;;;22.3;58.41309;94239.34;;;;
2019/07/27 05:10:44;;;;;;;5.800001;5.3;;;;;;;22.3;58.41309;94239.34;;;;
2019/07/27 05:11:45;;;;;;;5.800001;5.3;;;;;;;22.3;58.41309;94239.34;;;;
2019/07/27 05:12:46;;;;;;;8.349998;5.5;;;;;;;22.42;58.61816;94243.53;;;;
2019/07/27 05:13:47;;;;;;;8.349998;5.5;;;;;;;22.42;58.61816;94243.53;;;;
2019/07/27 05:14:49;;;;;;;8.349998;5.5;;;;;;;22.42;58.61816;94243.53;;;;
2019/07/27 05:15:50;;;;;;;8.349998;5.5;;;;;;;22.42;58.61816;94243.53;;;;
2019/07/27 05:16:51;;;;;;;8.349998;5.5;;;;;;;22.42;58.61816;94243.53;;;;
2019/07/27 05:17:52;;;;;;;8.349998;5.5;;;;;;;22.42;58.61816;94243.53;;;;
2019/07/27 05:18:53;;;;;;;8.349998;5.5;;;;;;;22.42;58.61816;94243.53;;;;
2019/07/27 05:19:54;;;;;;;8.349998;5.5;;;;;;;22.42;58.61816;94243.53;;;;
2019/07/27 05:20:55;;;;;;;8.349998;5.5;;;;;;;22.42;58.61816;94243.53;;;;
2019/07/27 05:21:56;;;;;;;8.349998;5.5;;;;;;;22.42;58.61816;94243.53;;;;
2019/07/27 05:22:57;;;;;;;8.349998;5.5;;;;;;;22.42;58.61816;94243.53;;;;
2019/07/27 05:23:59;;;;;;;5.8;5.099999;;;;;;;22.82;58.4043;94249.24;;;;
2019/07/27 05:25:00;;;;;;;5.8;5.099999;;;;;;;22.82;58.4043;94249.24;;;;
2019/07/27 05:26:02;;;;;;;5.8;5.099999;;;;;;;22.82;58.4043;94249.24;;;;
2019/07/27 05:27:03;;;;;;;5.8;5.099999;;;;;;;22.82;58.4043;94249.24;;;;
2019/07/27 05:28:04;;;;;;;5.8;5.099999;;;;;;;22.82;58.4043;94249.24;;;;
2019/07/27 05:29:05;;;;;;;5.8;5.099999;;;;;;;22.82;58.4043;94249.24;;;;
2019/07/27 05:30:06;;;;;;;5.8;5.099999;;;;;;;22.82;58.4043;94249.24;;;;
2019/07/27 05:31:08;;;;;;;5.8;5.099999;;;;;;;22.82;58.4043;94249.24;;;;
2019/07/27 05:32:09;;;;;;;5.8;5.099999;;;;;;;22.82;58.4043;94249.24;;;;
2019/07/27 05:33:10;;;;;;;5.8;5.099999;;;;;;;22.82;58.4043;94249.24;;;;
2019/07/27 05:34:12;;;;;;;6.55;4.900001;;;;;;;23.17;58.36328;94261.53;;;;
2019/07/27 05:35:13;;;;;;;6.55;4.900001;;;;;;;23.17;58.36328;94261.53;;;;
2019/07/27 05:36:14;;;;;;;6.55;4.900001;;;;;;;23.17;58.36328;94261.53;;;;